createdAt,value
2023-05-18T00:02:18.815Z,94257.75
2023-05-18T00:04:45.273Z,94257.16
2023-05-18T00:07:12.603Z,94253.59
2023-05-18T00:09:42.061Z,94247.09
2023-05-18T00:12:25.921Z,94240.03
2023-05-18T00:14:52.269Z,94238.13
2023-05-18T00:17:24.887Z,94236.72
2023-05-18T00:19:51.743Z,94226.53
2023-05-18T00:22:18.855Z,94230.78
2023-05-18T00:24:48.579Z,94232.13
2023-05-18T00:27:17.897Z,94230.50
2023-05-18T00:29:44.210Z,94226.94
2023-05-18T00:32:10.727Z,94222.41
2023-05-18T00:34:37.242Z,94228.91
2023-05-18T00:37:03.685Z,94226.94
2023-05-18T00:39:30.025Z,94225.38
2023-05-18T00:42:06.703Z,94231.84
2023-05-18T00:44:33.128Z,94222.78
2023-05-18T00:47:00.204Z,94229.28
2023-05-18T00:49:26.971Z,94227.16
2023-05-18T00:51:53.774Z,94229.91
2023-05-18T00:54:20.118Z,94226.03
2023-05-18T00:56:48.358Z,94223.09
2023-05-18T00:59:15.475Z,94225.34
2023-05-18T01:01:46.212Z,94218.88
2023-05-18T01:04:14.492Z,94225.03
2023-05-18T01:06:50.850Z,94220.47
2023-05-18T01:09:17.838Z,94214.97
2023-05-18T01:12:03.007Z,94213.16
2023-05-18T01:14:45.657Z,94218.19
2023-05-18T01:17:33.443Z,94216.72
2023-05-18T01:20:12.076Z,94220.41
2023-05-18T01:22:38.941Z,94210.97
2023-05-18T01:25:14.889Z,94211.59
2023-05-18T01:27:46.273Z,94216.44
2023-05-18T01:30:16.902Z,94212.25
2023-05-18T01:32:43.518Z,94206.41
2023-05-18T01:35:13.018Z,94209.00
2023-05-18T01:37:39.692Z,94207.06
2023-05-18T01:40:07.594Z,94197.34
2023-05-18T01:42:34.942Z,94195.69
2023-05-18T01:45:09.553Z,94190.81
2023-05-18T01:47:38.115Z,94191.22
2023-05-18T01:50:26.253Z,94180.16
2023-05-18T01:53:03.751Z,94180.78
2023-05-18T01:55:31.022Z,94184.34
2023-05-18T01:57:58.568Z,94178.53
2023-05-18T02:00:25.635Z,94185.28
2023-05-18T02:02:52.156Z,94177.19
2023-05-18T02:05:18.702Z,94184.09
2023-05-18T02:07:47.302Z,94178.72
2023-05-18T02:10:13.972Z,94175.47
2023-05-18T02:13:07.399Z,94177.41
2023-05-18T02:15:33.852Z,94173.88
2023-05-18T02:18:03.406Z,94167.69
2023-05-18T02:20:33.298Z,94162.63
2023-05-18T02:23:00.159Z,94170.19
2023-05-18T02:25:26.511Z,94167.69
2023-05-18T02:27:52.910Z,94159.09
2023-05-18T02:30:19.365Z,94104.50
2023-05-18T02:33:01.304Z,94161.63
2023-05-18T02:35:27.777Z,94161.41
2023-05-18T02:37:55.863Z,94158.25
2023-05-18T02:40:22.423Z,94152.09
2023-05-18T02:42:48.768Z,94150.75
2023-05-18T02:45:25.176Z,94152.69
2023-05-18T02:47:51.557Z,94150.34
2023-05-18T02:50:18.087Z,94163.09
2023-05-18T02:52:45.516Z,94151.97
2023-05-18T02:55:21.207Z,94151.44
2023-05-18T02:57:48.193Z,94154.16
2023-05-18T03:00:16.895Z,94150.63
2023-05-18T03:02:44.399Z,94151.28
2023-05-18T03:05:10.919Z,94152.91
2023-05-18T03:07:37.295Z,94151.91
2023-05-18T03:10:13.150Z,94144.75
2023-05-18T03:12:39.478Z,94150.19
2023-05-18T03:15:06.197Z,94146.97
2023-05-18T03:17:33.775Z,94133.66
2023-05-18T03:20:00.237Z,94140.75
2023-05-18T03:22:26.586Z,94142.69
2023-05-18T03:24:55.460Z,94134.28
2023-05-18T03:27:30.061Z,94143.25
2023-05-18T03:29:57.402Z,94141.34
2023-05-18T03:32:28.363Z,94145.56
2023-05-18T03:34:55.187Z,94145.13
2023-05-18T03:37:21.623Z,94140.59
2023-05-18T03:39:47.967Z,94144.22
2023-05-18T03:42:14.328Z,94145.75
2023-05-18T03:44:43.709Z,94138.41
2023-05-18T03:47:10.110Z,94142.03
2023-05-18T03:49:44.522Z,94139.81
2023-05-18T03:52:11.374Z,94137.88
2023-05-18T03:54:37.786Z,94139.72
2023-05-18T03:57:11.516Z,94137.69
2023-05-18T03:59:37.915Z,94138.09
2023-05-18T04:02:06.429Z,94137.06
2023-05-18T04:04:33.273Z,94133.22
2023-05-18T04:07:02.019Z,94138.41
2023-05-18T04:09:29.236Z,94141.63
2023-05-18T04:11:55.806Z,94130.34
2023-05-18T04:14:29.232Z,94141.69
2023-05-18T04:16:58.246Z,94145.22
2023-05-18T04:19:57.162Z,94138.56
2023-05-18T04:22:25.595Z,94149.59
2023-05-18T04:24:55.198Z,94145.66
2023-05-18T04:27:25.740Z,94140.81
2023-05-18T04:29:52.094Z,94149.22
2023-05-18T04:32:19.109Z,94139.66
2023-05-18T04:34:49.671Z,94131.44
2023-05-18T04:37:29.490Z,94141.19
2023-05-18T04:39:55.861Z,94146.22
2023-05-18T04:42:22.403Z,94133.94
2023-05-18T04:44:54.267Z,94141.88
2023-05-18T04:47:23.965Z,94145.47
2023-05-18T04:49:52.363Z,94134.84
2023-05-18T04:52:19.621Z,94140.03
2023-05-18T04:54:46.169Z,94139.56
2023-05-18T04:57:13.089Z,94137.47
2023-05-18T04:59:41.399Z,94138.09
2023-05-18T05:02:07.870Z,94144.94
2023-05-18T05:04:46.652Z,94134.91
2023-05-18T05:07:12.995Z,94138.81
2023-05-18T05:09:41.339Z,94143.31
2023-05-18T05:12:11.212Z,94145.94
2023-05-18T05:14:40.885Z,94138.31
2023-05-18T05:17:13.470Z,94149.50
2023-05-18T05:19:49.089Z,94144.63
2023-05-18T05:22:16.056Z,94146.25
2023-05-18T05:24:42.474Z,94148.84
2023-05-18T05:27:11.212Z,94150.13
2023-05-18T05:29:37.548Z,94142.63
2023-05-18T05:32:05.192Z,94143.28
2023-05-18T05:34:31.698Z,94149.38
2023-05-18T05:36:59.028Z,94148.75
2023-05-18T05:39:33.459Z,94139.38
2023-05-18T05:42:01.784Z,94147.59
2023-05-18T05:44:35.822Z,94144.16
2023-05-18T05:47:02.808Z,94141.88
2023-05-18T05:49:41.246Z,94141.84
2023-05-18T05:52:07.634Z,94147.38
2023-05-18T05:55:15.036Z,94153.50
2023-05-18T05:57:42.865Z,94139.19
2023-05-18T06:00:15.568Z,94146.63
2023-05-18T06:02:42.104Z,94141.72
2023-05-18T06:05:24.961Z,94142.19
2023-05-18T06:07:51.433Z,94143.13
2023-05-18T06:10:31.112Z,94142.16
2023-05-18T06:12:57.608Z,94136.84
2023-05-18T06:15:23.969Z,94136.72
2023-05-18T06:17:50.627Z,94138.56
2023-05-18T06:20:17.234Z,94139.47
2023-05-18T06:22:44.649Z,94142.00
2023-05-18T06:25:11.051Z,94140.84
2023-05-18T06:27:42.402Z,94148.31
2023-05-18T06:30:10.994Z,94143.13
2023-05-18T06:32:37.906Z,94142.84
2023-05-18T06:35:06.197Z,94152.63
2023-05-18T06:37:33.630Z,94154.22
2023-05-18T06:40:00.009Z,94150.84
2023-05-18T06:42:31.780Z,94152.22
2023-05-18T06:45:02.829Z,94154.56
2023-05-18T06:47:49.584Z,94154.63
2023-05-18T06:50:16.302Z,94154.09
2023-05-18T06:52:48.941Z,94150.25
2023-05-18T06:55:16.542Z,94156.78
2023-05-18T06:57:58.737Z,94146.47
2023-05-18T07:00:30.889Z,94149.41
2023-05-18T07:03:01.720Z,94142.56
2023-05-18T07:05:33.545Z,94149.88
2023-05-18T07:08:05.080Z,94147.91
2023-05-18T07:10:31.541Z,94149.03
2023-05-18T07:12:59.005Z,94149.56
2023-05-18T07:15:26.617Z,94149.34
2023-05-18T07:18:03.584Z,94153.13
2023-05-18T07:20:31.094Z,94150.75
2023-05-18T07:23:06.861Z,94136.38
2023-05-18T07:25:34.370Z,94142.66
2023-05-18T07:28:02.734Z,94143.00
2023-05-18T07:30:29.083Z,94141.81
2023-05-18T07:33:02.613Z,94141.66
2023-05-18T07:35:41.226Z,94146.03
2023-05-18T07:38:11.175Z,94136.09
2023-05-18T07:40:37.619Z,94144.03
2023-05-18T07:43:07.203Z,94139.59
2023-05-18T07:45:34.855Z,94140.06
2023-05-18T07:48:01.852Z,94145.47
2023-05-18T07:50:31.320Z,94145.09
2023-05-18T07:53:11.019Z,94139.47
2023-05-18T07:55:38.597Z,94091.44
2023-05-18T07:58:11.264Z,94141.22
2023-05-18T08:00:37.887Z,94135.19
2023-05-18T08:03:06.824Z,94145.88
2023-05-18T08:05:34.482Z,94146.91
2023-05-18T08:08:00.917Z,94135.81
2023-05-18T08:10:32.290Z,94141.50
2023-05-18T08:12:59.637Z,94131.44
2023-05-18T08:15:32.148Z,94141.50
2023-05-18T08:17:58.810Z,94144.94
2023-05-18T08:20:30.049Z,94127.63
2023-05-18T08:22:56.843Z,94144.38
2023-05-18T08:25:24.966Z,94140.78
2023-05-18T08:27:53.202Z,94146.41
2023-05-18T08:30:21.534Z,94147.59
2023-05-18T08:32:48.296Z,94148.59
2023-05-18T08:35:17.535Z,94144.00
2023-05-18T08:37:44.158Z,94144.41
2023-05-18T08:40:12.876Z,94152.69
2023-05-18T08:42:58.944Z,94148.44
2023-05-18T08:45:48.378Z,94138.78
2023-05-18T08:48:16.548Z,94146.41
2023-05-18T08:50:44.217Z,94151.06
2023-05-18T08:53:15.552Z,94146.84
2023-05-18T08:55:50.870Z,94155.69
2023-05-18T08:58:19.511Z,94166.97
2023-05-18T09:00:45.962Z,94168.19
2023-05-18T09:03:14.300Z,94160.16
2023-05-18T09:05:41.381Z,94154.50
2023-05-18T09:08:09.618Z,94136.34
2023-05-18T09:10:39.392Z,94146.81
2023-05-18T09:13:07.972Z,94154.09
2023-05-18T09:15:35.596Z,94156.00
2023-05-18T09:18:02.230Z,94150.34
2023-05-18T09:20:29.727Z,94146.66
2023-05-18T09:22:59.290Z,94140.94
2023-05-18T09:25:27.114Z,94149.28
2023-05-18T09:28:21.091Z,94144.19
2023-05-18T09:30:48.146Z,94150.41
2023-05-18T09:33:21.712Z,94152.34
2023-05-18T09:35:59.354Z,94147.53
2023-05-18T09:38:27.976Z,94145.97
2023-05-18T09:40:54.354Z,94153.00
2023-05-18T09:43:20.839Z,94142.28
2023-05-18T09:45:48.822Z,94145.19
2023-05-18T09:48:18.556Z,94143.66
2023-05-18T09:50:46.207Z,94147.25
2023-05-18T09:53:13.944Z,94152.28
2023-05-18T09:55:51.391Z,94158.91
2023-05-18T09:58:19.896Z,94140.41
2023-05-18T10:00:51.849Z,94139.66
2023-05-18T10:03:22.348Z,94144.66
2023-05-18T10:05:49.264Z,94136.03
2023-05-18T10:08:15.882Z,94133.13
2023-05-18T10:10:49.095Z,94145.91
2023-05-18T10:13:25.267Z,94145.91
2023-05-18T10:15:54.147Z,94142.50
2023-05-18T10:18:23.011Z,94152.63
2023-05-18T10:20:51.099Z,94151.34
2023-05-18T10:23:18.895Z,94143.06
2023-05-18T10:25:46.422Z,94155.50
2023-05-18T10:28:14.301Z,94150.25
2023-05-18T10:30:41.692Z,94153.13
2023-05-18T10:33:20.576Z,94147.97
2023-05-18T10:36:07.829Z,94151.69
2023-05-18T10:38:36.716Z,94157.47
2023-05-18T10:41:07.746Z,94161.25
2023-05-18T10:43:42.787Z,94161.69
2023-05-18T10:46:16.745Z,94161.25
2023-05-18T10:48:54.002Z,94160.78
2023-05-18T10:51:21.368Z,94155.06
2023-05-18T10:53:48.322Z,94159.50
2023-05-18T10:56:18.007Z,94170.88
2023-05-18T10:58:51.154Z,94164.34
2023-05-18T11:01:17.652Z,94163.97
2023-05-18T11:03:44.776Z,94159.06
2023-05-18T11:06:12.194Z,94160.50
2023-05-18T11:08:43.474Z,94160.31
2023-05-18T11:11:09.906Z,94154.03
2023-05-18T11:13:43.656Z,94157.81
2023-05-18T11:16:11.085Z,94154.59
2023-05-18T11:18:38.566Z,94158.06
2023-05-18T11:21:26.297Z,94155.88
2023-05-18T11:24:12.570Z,94153.09
2023-05-18T11:26:50.676Z,94153.47
2023-05-18T11:29:18.475Z,94160.09
2023-05-18T11:31:45.885Z,94152.53
2023-05-18T11:34:31.034Z,94152.72
2023-05-18T11:36:57.423Z,94152.53
2023-05-18T11:39:24.991Z,94152.97
2023-05-18T11:42:10.892Z,94156.13
2023-05-18T11:44:40.003Z,94156.72
2023-05-18T11:47:10.792Z,94151.00
2023-05-18T11:49:47.302Z,94151.34
2023-05-18T11:52:19.964Z,94159.53
2023-05-18T11:54:53.641Z,94160.84
2023-05-18T11:57:21.028Z,94163.63
2023-05-18T11:59:48.066Z,94158.81
2023-05-18T12:02:21.584Z,94154.84
2023-05-18T12:04:50.711Z,94153.47
2023-05-18T12:07:20.828Z,94156.28
2023-05-18T12:09:48.038Z,94038.09
2023-05-18T12:12:17.272Z,94166.88
2023-05-18T12:14:55.797Z,94159.66
2023-05-18T12:17:22.477Z,94164.50
2023-05-18T12:19:49.385Z,94160.47
2023-05-18T12:22:16.177Z,94160.66
2023-05-18T12:24:43.015Z,94157.97
2023-05-18T12:27:10.554Z,94162.38
2023-05-18T12:29:44.412Z,94156.75
2023-05-18T12:32:12.437Z,94168.63
2023-05-18T12:34:44.146Z,94164.75
2023-05-18T12:37:10.906Z,94155.00
2023-05-18T12:39:37.396Z,94160.31
2023-05-18T12:42:10.810Z,94162.34
2023-05-18T12:44:37.667Z,94153.75
2023-05-18T12:47:04.246Z,94151.03
2023-05-18T12:49:41.513Z,94149.47
2023-05-18T12:52:10.462Z,94156.00
2023-05-18T12:54:36.893Z,94158.81
2023-05-18T12:57:07.560Z,94157.03
2023-05-18T12:59:33.974Z,94156.00
2023-05-18T13:02:00.480Z,94158.38
2023-05-18T13:04:34.406Z,94148.22
2023-05-18T13:07:00.839Z,94150.13
2023-05-18T13:09:28.246Z,94143.97
2023-05-18T13:12:06.989Z,94149.66
2023-05-18T13:14:37.825Z,94145.53
2023-05-18T13:17:04.333Z,94152.84
2023-05-18T13:19:31.667Z,94152.97
2023-05-18T13:21:58.113Z,94147.13
2023-05-18T13:24:24.598Z,94148.34
2023-05-18T13:26:52.053Z,94149.75
2023-05-18T13:29:18.417Z,94144.13
2023-05-18T13:31:44.952Z,94148.88
2023-05-18T13:34:11.474Z,94143.97
2023-05-18T13:36:38.152Z,94149.53
2023-05-18T13:39:07.224Z,94143.06
2023-05-18T13:41:36.514Z,94150.31
2023-05-18T13:44:03.459Z,94145.44
2023-05-18T13:46:37.774Z,94151.63
2023-05-18T13:49:12.714Z,94145.13
2023-05-18T13:51:39.096Z,94144.78
2023-05-18T13:54:05.657Z,94142.22
2023-05-18T13:56:34.047Z,94138.97
2023-05-18T13:59:00.421Z,94144.91
2023-05-18T14:01:32.502Z,94144.19
2023-05-18T14:03:58.987Z,94146.50
2023-05-18T14:06:27.531Z,94138.34
2023-05-18T14:08:53.893Z,94141.13
2023-05-18T14:11:22.321Z,94142.44
2023-05-18T14:13:48.696Z,94133.81
2023-05-18T14:16:15.131Z,94142.28
2023-05-18T14:18:41.550Z,94140.75
2023-05-18T14:21:12.978Z,94153.22
2023-05-18T14:23:39.321Z,94152.59
2023-05-18T14:26:05.987Z,94155.66
2023-05-18T14:28:32.344Z,94156.88
2023-05-18T14:30:59.402Z,94156.69
2023-05-18T14:33:25.782Z,94159.75
2023-05-18T14:35:52.195Z,94153.66
2023-05-18T14:38:19.666Z,94149.13
2023-05-18T14:40:46.112Z,94154.38
2023-05-18T14:43:12.639Z,94151.50
2023-05-18T14:45:39.023Z,94151.75
2023-05-18T14:48:06.466Z,94148.97
2023-05-18T14:50:38.522Z,94152.16
2023-05-18T14:53:07.362Z,94151.91
2023-05-18T14:55:34.843Z,94144.84
2023-05-18T14:58:02.388Z,94154.59
2023-05-18T15:00:28.976Z,94159.47
2023-05-18T15:02:58.593Z,94145.78
2023-05-18T15:05:24.966Z,94161.13
2023-05-18T15:07:53.344Z,94151.47
2023-05-18T15:10:26.197Z,94157.25
2023-05-18T15:12:52.577Z,94151.56
2023-05-18T15:15:21.058Z,94151.97
2023-05-18T15:17:47.705Z,94152.34
2023-05-18T15:20:14.113Z,94153.31
2023-05-18T15:22:41.349Z,94145.78
2023-05-18T15:25:08.170Z,94149.03
2023-05-18T15:27:37.487Z,94141.66
2023-05-18T15:30:11.096Z,94145.31
2023-05-18T15:32:37.950Z,94142.03
2023-05-18T15:35:08.868Z,94142.16
2023-05-18T15:37:36.248Z,94145.03
2023-05-18T15:40:02.857Z,94142.22
2023-05-18T15:42:31.296Z,94147.00
2023-05-18T15:44:57.679Z,94143.81
2023-05-18T15:47:24.030Z,94142.25
2023-05-18T15:49:50.482Z,94144.28
2023-05-18T15:52:19.947Z,94154.34
2023-05-18T15:54:46.319Z,94143.91
2023-05-18T15:57:12.736Z,94143.16
2023-05-18T15:59:47.273Z,94139.94
2023-05-18T16:02:13.790Z,94144.00
2023-05-18T16:04:40.235Z,94133.09
2023-05-18T16:07:06.708Z,94134.31
2023-05-18T16:09:33.136Z,94139.13
2023-05-18T16:12:03.554Z,94138.72
2023-05-18T16:14:31.061Z,94142.13
2023-05-18T16:16:57.618Z,94148.00
2023-05-18T16:19:30.641Z,94143.97
2023-05-18T16:21:58.056Z,94141.97
2023-05-18T16:24:33.647Z,94143.78
2023-05-18T16:27:05.614Z,94138.75
2023-05-18T16:29:32.025Z,94137.91
2023-05-18T16:32:00.464Z,94137.91
2023-05-18T16:34:28.947Z,94136.91
2023-05-18T16:36:56.510Z,94143.97
2023-05-18T16:39:31.999Z,94143.16
2023-05-18T16:42:02.537Z,94143.97
2023-05-18T16:44:30.954Z,94144.38
2023-05-18T16:46:57.493Z,94151.22
2023-05-18T16:49:24.159Z,94148.00
2023-05-18T16:51:51.516Z,94147.63
2023-05-18T16:54:18.970Z,94148.03
2023-05-18T16:56:45.676Z,94148.00
2023-05-18T16:59:20.349Z,94153.28
2023-05-18T17:01:48.942Z,94151.28
2023-05-18T17:04:18.543Z,94160.09
2023-05-18T17:06:51.443Z,94160.75
2023-05-18T17:09:20.885Z,94156.50
2023-05-18T17:11:51.351Z,94159.94
2023-05-18T17:14:18.590Z,94160.16
2023-05-18T17:16:45.991Z,94154.50
2023-05-18T17:19:21.491Z,94154.91
2023-05-18T17:21:49.345Z,94158.94
2023-05-18T17:24:15.877Z,94154.91
2023-05-18T17:26:45.202Z,94164.19
2023-05-18T17:29:19.151Z,94161.38
2023-05-18T17:31:47.475Z,94168.59
2023-05-18T17:34:16.027Z,94163.75
2023-05-18T17:36:49.026Z,94160.94
2023-05-18T17:39:18.750Z,94164.75
2023-05-18T17:41:51.360Z,94166.38
2023-05-18T17:44:19.043Z,94164.38
2023-05-18T17:46:47.501Z,94173.84
2023-05-18T17:49:15.198Z,94165.59
2023-05-18T17:51:41.787Z,94167.81
2023-05-18T17:54:09.516Z,94166.38
2023-05-18T17:56:36.147Z,94169.38
2023-05-18T17:59:05.232Z,94172.22
2023-05-18T18:01:32.106Z,94165.75
2023-05-18T18:03:59.760Z,94168.59
2023-05-18T18:06:29.551Z,94170.97
2023-05-18T18:08:57.657Z,94172.59
2023-05-18T18:11:25.340Z,94167.56
2023-05-18T18:13:53.982Z,94174.41
2023-05-18T18:16:21.783Z,94166.75
2023-05-18T18:18:54.318Z,94174.63
2023-05-18T18:21:26.809Z,94178.84
2023-05-18T18:23:56.260Z,94171.41
2023-05-18T18:26:22.704Z,94177.44
2023-05-18T18:28:50.159Z,94176.97
2023-05-18T18:31:16.683Z,94174.78
2023-05-18T18:33:50.801Z,94172.59
2023-05-18T18:36:18.193Z,94183.44
2023-05-18T18:38:47.054Z,94179.34
2023-05-18T18:41:17.424Z,94179.75
2023-05-18T18:43:44.164Z,94185.41
2023-05-18T18:46:10.630Z,94189.28
2023-05-18T18:48:51.150Z,94191.88
2023-05-18T18:51:17.557Z,94189.84
2023-05-18T18:53:46.226Z,94197.47
2023-05-18T18:56:12.614Z,94185.81
2023-05-18T18:58:40.104Z,94193.84
2023-05-18T19:01:06.504Z,94194.25
2023-05-18T19:03:35.970Z,94193.00
2023-05-18T19:06:04.427Z,94196.97
2023-05-18T19:08:31.951Z,94201.91
2023-05-18T19:10:58.352Z,94196.22
2023-05-18T19:13:25.914Z,94187.81
2023-05-18T19:15:53.766Z,94197.47
2023-05-18T19:18:21.337Z,94196.16
2023-05-18T19:20:54.949Z,94200.59
2023-05-18T19:23:23.321Z,94201.44
2023-05-18T19:25:50.784Z,94204.19
2023-05-18T19:28:20.362Z,94205.81
2023-05-18T19:30:48.171Z,94205.00
2023-05-18T19:33:18.567Z,94207.41
2023-05-18T19:35:45.973Z,94208.50
2023-05-18T19:38:13.423Z,94210.72
2023-05-18T19:40:49.110Z,94208.56
2023-05-18T19:43:15.937Z,94212.16
2023-05-18T19:45:43.415Z,94214.16
2023-05-18T19:48:13.854Z,94212.03
2023-05-18T19:50:41.255Z,94212.97
2023-05-18T19:53:07.783Z,94214.97
2023-05-18T19:55:38.273Z,94214.66
2023-05-18T19:58:06.943Z,94217.00
2023-05-18T20:00:34.715Z,94219.81
2023-05-18T20:03:03.647Z,94217.25
2023-05-18T20:05:31.185Z,94216.78
2023-05-18T20:08:02.879Z,94220.16
2023-05-18T20:10:32.419Z,94230.09
2023-05-18T20:13:00.193Z,94222.25
2023-05-18T20:15:28.121Z,94217.56
2023-05-18T20:17:54.720Z,94220.69
2023-05-18T20:20:21.139Z,94214.16
2023-05-18T20:22:47.694Z,94220.78
2023-05-18T20:25:14.119Z,94225.00
2023-05-18T20:27:40.513Z,94225.56
2023-05-18T20:30:08.281Z,94219.72
2023-05-18T20:32:35.766Z,94223.69
2023-05-18T20:35:02.339Z,94223.38
2023-05-18T20:37:34.019Z,94226.19
2023-05-18T20:40:09.095Z,94220.13
2023-05-18T20:42:40.277Z,94220.59
2023-05-18T20:45:08.460Z,94221.31
2023-05-18T20:47:35.174Z,94217.53
2023-05-18T20:50:02.297Z,94212.09
2023-05-18T20:52:31.848Z,94213.69
2023-05-18T20:55:00.545Z,94216.56
2023-05-18T20:57:28.228Z,94216.09
2023-05-18T20:59:54.654Z,94214.56
2023-05-18T21:02:21.034Z,94210.44
2023-05-18T21:04:52.541Z,94217.91
2023-05-18T21:07:22.270Z,94209.19
2023-05-18T21:09:49.853Z,94208.88
2023-05-18T21:12:16.484Z,94204.41
2023-05-18T21:14:44.818Z,94210.41
2023-05-18T21:17:18.333Z,94206.38
2023-05-18T21:19:45.673Z,94215.16
2023-05-18T21:22:12.015Z,94209.59
2023-05-18T21:24:40.679Z,94196.63
2023-05-18T21:27:08.121Z,94197.47
2023-05-18T21:29:37.576Z,94204.22
2023-05-18T21:32:06.157Z,94204.41
2023-05-18T21:34:32.686Z,94208.81
2023-05-18T21:37:01.349Z,94201.94
2023-05-18T21:39:27.721Z,94205.47
2023-05-18T21:41:54.086Z,94207.94
2023-05-18T21:44:27.615Z,94207.56
2023-05-18T21:46:57.867Z,94207.06
2023-05-18T21:49:24.439Z,94203.41
2023-05-18T21:51:56.135Z,94204.72
2023-05-18T21:54:22.730Z,94206.06
2023-05-18T21:56:49.109Z,94211.63
2023-05-18T21:59:15.458Z,94208.91
2023-05-18T22:01:41.865Z,94208.69
2023-05-18T22:04:08.272Z,94205.94
2023-05-18T22:06:36.709Z,94204.94
2023-05-18T22:09:03.160Z,94142.50
2023-05-18T22:11:30.618Z,94206.50
2023-05-18T22:14:01.015Z,94201.97
2023-05-18T22:16:28.535Z,94200.75
2023-05-18T22:18:54.916Z,94208.09
2023-05-18T22:21:21.284Z,94201.00
2023-05-18T22:23:47.633Z,94194.94
2023-05-18T22:26:14.046Z,94194.78
2023-05-18T22:28:40.460Z,94188.81
2023-05-18T22:31:06.899Z,94187.31
2023-05-18T22:33:33.252Z,94189.28
2023-05-18T22:35:59.602Z,94176.28
2023-05-18T22:38:25.963Z,94183.50
2023-05-18T22:40:57.406Z,94178.66
2023-05-18T22:43:23.769Z,94180.84
2023-05-18T22:45:50.225Z,94183.38
2023-05-18T22:48:27.008Z,94186.13
2023-05-18T22:50:54.476Z,94174.28
2023-05-18T22:53:20.821Z,94177.88
2023-05-18T22:55:47.180Z,94172.31
2023-05-18T22:58:13.550Z,94180.56
2023-05-18T23:00:39.959Z,94173.94
2023-05-18T23:03:19.516Z,94175.31
2023-05-18T23:05:48.245Z,94183.38
2023-05-18T23:08:15.340Z,94184.47
2023-05-18T23:10:44.659Z,94177.88
2023-05-18T23:13:19.589Z,94173.81
2023-05-18T23:15:47.668Z,94174.94
2023-05-18T23:18:14.454Z,94174.19
2023-05-18T23:20:41.959Z,94166.97
2023-05-18T23:23:08.921Z,94169.84
2023-05-18T23:25:41.496Z,94165.75
2023-05-18T23:28:07.844Z,94162.28
2023-05-18T23:30:41.182Z,94169.00
2023-05-18T23:33:07.788Z,94171.22
2023-05-18T23:35:35.079Z,94166.72
2023-05-18T23:38:10.467Z,94169.47
2023-05-18T23:40:36.854Z,94167.28
2023-05-18T23:43:03.346Z,94158.91
2023-05-18T23:45:31.037Z,94155.16
2023-05-18T23:47:57.682Z,94154.31
2023-05-18T23:50:26.322Z,94158.78
2023-05-18T23:52:59.831Z,94149.97
2023-05-18T23:55:26.704Z,94153.94
2023-05-18T23:57:53.715Z,94149.75
